Terminal Aerodrome Forecast
Issued by NWS

Home | Current Version | Previous Version | Text Only | Print | Product List | Glossary On
Versions: 1 2 3 4 5 6 7 8 9 10 11 12 13 14 15 16 17 18 19
000
FTUS44 KOHX 281800 AAA
TAFCKV
TAF AMD
KCKV 281857Z 2819/2918 34010G18KT P6SM SCT050 BKN070
     FM290300 33005KT P6SM SKC
      TEMPO 2910/2912 4SM BR
     FM291700 01007G15KT P6SM FEW045=

USA.gov is the U.S. government's official web portal to all federal, state and local government web resources and services.